Gordonville, Texas
Current Conditions -  °F | °C
As of 2:55 PM on Thursday 20 Nov 2014 (Local Time) from KGYI Reporting Station
Clear Clear  
Wind Chill: 70°   Ceiling: Unl
Heat Index: 70°   Visibility: 10mi
Dew Point: 45°   Wind: 14mph
Humidity: 41%   Direction: 190°S
Pressure: 30.01"   Gusts: 20mph
Location:  33.8°N, 96.85°W
Report Text: KGYI 202055Z AUTO 19012G17KT 10SM CLR 21/07 A3001 RMK AO2 T02100072
Loading
Personal Weather Stations






























Interactive Weather Map New forecast layout! Learn more

10-Day Weather Forecast

Advertisements
Track Severe Weather on mobile